Airfield :
LOGIN :

Register | Disclaimer

   EN    FR    IT 

 










Legend :    VFR   Marginal VFR   IFR   Intensive IFR   Very Intensive IFR
Visi :
Ceiling :
>= 8 km
>= 3000ft
5 to 8 km
1000 to 3000 ft
1500m to 5 km
500 to 1000 ft
800 to 1500m
200 to 500 ft
< 800m
< 200 ft
Symbols :   Thunderstorms  Fog  Heavy snow  Heavy precipitations  Wind > 20 kt
SIGMETs :     Misc.  Thunderstorms  Icing  Turbulence  Mountain Waves  Volcanic Ashes






- Airport Elevation : 289 ft
- IATA code : BSK


DAUB - Mohamed Khider

CURRENT METAR :
  • 211900Z 10026G36KT 1500 BLSA NSC 17/01 Q1018

EXPIRED METARs :
  • 211800Z 11021G31KT 1500 BLSA NSC 17/01 Q1018
  • 211700Z 11026G37KT 1000 BLSA NSC 18/02 Q1017

TAF TAF DAUB
Valid from the 21 at 18:00 until the 22 at 18:00 UTC


211700Z 2118/2218 11025KT 6000 NSC
TEMPO 2118/2206 12026G45KT 3000 DRSA
TEMPO 2118/2203 13030G50KT 0800 BLSA
PROB40
TEMPO 2206/2218 10025G40KT 4000 DRSA
PROB40
TEMPO 2206/2215 1000 BLSA



MET'MAP, your aeronautical weather chart ! - Copyright ORBIFLY December 2007 - Disclaimer

ORBIFLY MET'MAP TEAM :

Programming & Development : Alexandra Zaïnal
Concept & original design : Baudouin d'Aumeries
Assistance for programming : Marc-Olivier Méhu
Technical & hardware support : Manuel Goepfert

Contact : metmap@orbifly.com




SOURCES & CREDITS :

   NOAA